sensor_id;sensor_type;location;lat;lon;timestamp;P1;durP1;ratioP1;P2;durP2;ratioP2
47545;SDS011;50104;52.002;4.688;2023-06-04T00:04:58;2.75;;;1.70;;
47545;SDS011;50104;52.002;4.688;2023-06-04T00:09:59;2.00;;;1.40;;
47545;SDS011;50104;52.002;4.688;2023-06-04T00:15:00;3.20;;;1.27;;
47545;SDS011;50104;52.002;4.688;2023-06-04T00:20:01;2.25;;;1.50;;
47545;SDS011;50104;52.002;4.688;2023-06-04T00:25:03;2.97;;;1.52;;
47545;SDS011;50104;52.002;4.688;2023-06-04T00:30:04;3.63;;;1.52;;
47545;SDS011;50104;52.002;4.688;2023-06-04T00:35:06;2.25;;;1.52;;
47545;SDS011;50104;52.002;4.688;2023-06-04T00:40:07;7.35;;;2.13;;
47545;SDS011;50104;52.002;4.688;2023-06-04T00:45:08;1.67;;;1.50;;
47545;SDS011;50104;52.002;4.688;2023-06-04T00:50:10;3.03;;;1.75;;
47545;SDS011;50104;52.002;4.688;2023-06-04T00:55:11;1.52;;;1.42;;
47545;SDS011;50104;52.002;4.688;2023-06-04T01:00:13;3.10;;;1.55;;
47545;SDS011;50104;52.002;4.688;2023-06-04T01:05:15;3.17;;;1.67;;
47545;SDS011;50104;52.002;4.688;2023-06-04T01:10:17;3.47;;;1.52;;
47545;SDS011;50104;52.002;4.688;2023-06-04T01:15:19;4.25;;;1.75;;
47545;SDS011;50104;52.002;4.688;2023-06-04T01:20:22;1.77;;;1.60;;
47545;SDS011;50104;52.002;4.688;2023-06-04T01:25:37;3.90;;;1.70;;
47545;SDS011;50104;52.002;4.688;2023-06-04T01:30:43;2.83;;;1.38;;
47545;SDS011;50104;52.002;4.688;2023-06-04T01:35:45;2.08;;;1.40;;
47545;SDS011;50104;52.002;4.688;2023-06-04T01:40:46;3.50;;;1.45;;
47545;SDS011;50104;52.002;4.688;2023-06-04T01:45:47;1.50;;;1.25;;
47545;SDS011;50104;52.002;4.688;2023-06-04T01:50:48;1.50;;;1.40;;
47545;SDS011;50104;52.002;4.688;2023-06-04T01:55:49;2.80;;;1.42;;
47545;SDS011;50104;52.002;4.688;2023-06-04T02:00:51;3.45;;;2.28;;
47545;SDS011;50104;52.002;4.688;2023-06-04T02:05:53;1.92;;;1.45;;
47545;SDS011;50104;52.002;4.688;2023-06-04T02:10:53;4.85;;;1.52;;
47545;SDS011;50104;52.002;4.688;2023-06-04T02:15:54;3.15;;;1.70;;
47545;SDS011;50104;52.002;4.688;2023-06-04T02:20:56;1.67;;;1.58;;
47545;SDS011;50104;52.002;4.688;2023-06-04T02:25:57;2.72;;;1.48;;
47545;SDS011;50104;52.002;4.688;2023-06-04T02:30:58;1.92;;;1.50;;
47545;SDS011;50104;52.002;4.688;2023-06-04T02:35:59;2.45;;;1.50;;
47545;SDS011;50104;52.002;4.688;2023-06-04T02:41:01;2.97;;;1.70;;
47545;SDS011;50104;52.002;4.688;2023-06-04T02:46:01;3.10;;;1.50;;
47545;SDS011;50104;52.002;4.688;2023-06-04T02:51:02;4.05;;;1.65;;
47545;SDS011;50104;52.002;4.688;2023-06-04T02:56:05;2.67;;;1.58;;
47545;SDS011;50104;52.002;4.688;2023-06-04T03:01:06;2.10;;;1.40;;
47545;SDS011;50104;52.002;4.688;2023-06-04T03:06:07;2.45;;;1.65;;
47545;SDS011;50104;52.002;4.688;2023-06-04T03:11:08;1.83;;;1.20;;
47545;SDS011;50104;52.002;4.688;2023-06-04T03:16:09;3.95;;;1.60;;
47545;SDS011;50104;52.002;4.688;2023-06-04T03:21:10;1.80;;;1.40;;
47545;SDS011;50104;52.002;4.688;2023-06-04T03:26:14;2.75;;;1.67;;
47545;SDS011;50104;52.002;4.688;2023-06-04T03:31:15;2.67;;;1.50;;
47545;SDS011;50104;52.002;4.688;2023-06-04T03:36:16;3.13;;;1.50;;
47545;SDS011;50104;52.002;4.688;2023-06-04T03:41:16;1.40;;;1.30;;
47545;SDS011;50104;52.002;4.688;2023-06-04T03:46:17;1.98;;;1.50;;
47545;SDS011;50104;52.002;4.688;2023-06-04T03:51:18;2.00;;;1.33;;
47545;SDS011;50104;52.002;4.688;2023-06-04T03:56:18;2.60;;;1.88;;
47545;SDS011;50104;52.002;4.688;2023-06-04T04:01:19;2.28;;;1.20;;
47545;SDS011;50104;52.002;4.688;2023-06-04T04:06:21;1.63;;;1.50;;
47545;SDS011;50104;52.002;4.688;2023-06-04T04:11:22;3.15;;;1.45;;
47545;SDS011;50104;52.002;4.688;2023-06-04T04:16:22;3.30;;;1.60;;
47545;SDS011;50104;52.002;4.688;2023-06-04T04:21:24;3.08;;;1.48;;
47545;SDS011;50104;52.002;4.688;2023-06-04T04:26:25;4.13;;;1.52;;
47545;SDS011;50104;52.002;4.688;2023-06-04T04:31:27;1.60;;;1.30;;
47545;SDS011;50104;52.002;4.688;2023-06-04T04:36:28;1.88;;;1.42;;
47545;SDS011;50104;52.002;4.688;2023-06-04T04:41:29;1.88;;;1.48;;
47545;SDS011;50104;52.002;4.688;2023-06-04T04:46:31;2.05;;;1.50;;
47545;SDS011;50104;52.002;4.688;2023-06-04T04:51:31;3.42;;;1.70;;
47545;SDS011;50104;52.002;4.688;2023-06-04T04:56:33;3.28;;;1.75;;
47545;SDS011;50104;52.002;4.688;2023-06-04T05:01:34;2.22;;;1.95;;
47545;SDS011;50104;52.002;4.688;2023-06-04T05:06:36;4.03;;;1.95;;
47545;SDS011;50104;52.002;4.688;2023-06-04T05:11:38;2.92;;;1.50;;
47545;SDS011;50104;52.002;4.688;2023-06-04T05:16:38;2.75;;;1.70;;
47545;SDS011;50104;52.002;4.688;2023-06-04T05:21:40;3.53;;;1.60;;
47545;SDS011;50104;52.002;4.688;2023-06-04T05:26:42;1.83;;;1.73;;
47545;SDS011;50104;52.002;4.688;2023-06-04T05:31:42;2.25;;;1.50;;
47545;SDS011;50104;52.002;4.688;2023-06-04T05:36:43;3.85;;;2.03;;
47545;SDS011;50104;52.002;4.688;2023-06-04T05:41:44;5.47;;;1.95;;
47545;SDS011;50104;52.002;4.688;2023-06-04T05:46:45;3.20;;;1.75;;
47545;SDS011;50104;52.002;4.688;2023-06-04T05:51:46;2.47;;;1.80;;
47545;SDS011;50104;52.002;4.688;2023-06-04T05:56:47;4.20;;;1.77;;
47545;SDS011;50104;52.002;4.688;2023-06-04T06:01:48;4.75;;;1.70;;
47545;SDS011;50104;52.002;4.688;2023-06-04T06:06:50;2.75;;;1.80;;
47545;SDS011;50104;52.002;4.688;2023-06-04T06:11:51;2.80;;;1.42;;
47545;SDS011;50104;52.002;4.688;2023-06-04T06:16:52;4.05;;;1.92;;
47545;SDS011;50104;52.002;4.688;2023-06-04T06:21:53;2.63;;;1.77;;
47545;SDS011;50104;52.002;4.688;2023-06-04T06:26:54;2.20;;;1.80;;
47545;SDS011;50104;52.002;4.688;2023-06-04T06:31:55;3.35;;;1.80;;
47545;SDS011;50104;52.002;4.688;2023-06-04T06:36:55;2.67;;;1.67;;
47545;SDS011;50104;52.002;4.688;2023-06-04T06:41:57;2.78;;;1.80;;
47545;SDS011;50104;52.002;4.688;2023-06-04T06:46:58;4.75;;;1.70;;
47545;SDS011;50104;52.002;4.688;2023-06-04T06:51:59;3.92;;;1.75;;
47545;SDS011;50104;52.002;4.688;2023-06-04T06:57:02;2.95;;;1.58;;
47545;SDS011;50104;52.002;4.688;2023-06-04T07:02:03;3.80;;;1.80;;
47545;SDS011;50104;52.002;4.688;2023-06-04T07:07:05;4.13;;;1.48;;
47545;SDS011;50104;52.002;4.688;2023-06-04T07:12:05;3.95;;;1.38;;
47545;SDS011;50104;52.002;4.688;2023-06-04T07:17:06;4.65;;;1.85;;
47545;SDS011;50104;52.002;4.688;2023-06-04T07:22:07;2.83;;;1.48;;
47545;SDS011;50104;52.002;4.688;2023-06-04T07:27:12;3.00;;;1.55;;
47545;SDS011;50104;52.002;4.688;2023-06-04T07:32:14;2.90;;;1.15;;
47545;SDS011;50104;52.002;4.688;2023-06-04T07:37:15;3.03;;;1.42;;
47545;SDS011;50104;52.002;4.688;2023-06-04T07:42:16;2.70;;;1.38;;
47545;SDS011;50104;52.002;4.688;2023-06-04T07:47:17;4.53;;;1.30;;
47545;SDS011;50104;52.002;4.688;2023-06-04T07:52:17;1.23;;;1.08;;
47545;SDS011;50104;52.002;4.688;2023-06-04T07:57:21;2.60;;;1.25;;
47545;SDS011;50104;52.002;4.688;2023-06-04T08:02:22;4.88;;;1.17;;
47545;SDS011;50104;52.002;4.688;2023-06-04T08:07:23;2.63;;;0.85;;
47545;SDS011;50104;52.002;4.688;2023-06-04T08:12:25;3.15;;;1.00;;
47545;SDS011;50104;52.002;4.688;2023-06-04T08:17:25;2.28;;;0.80;;
47545;SDS011;50104;52.002;4.688;2023-06-04T08:22:26;2.70;;;1.10;;
47545;SDS011;50104;52.002;4.688;2023-06-04T08:27:29;2.60;;;1.10;;
47545;SDS011;50104;52.002;4.688;2023-06-04T08:32:30;3.50;;;1.00;;
47545;SDS011;50104;52.002;4.688;2023-06-04T08:37:32;3.03;;;1.42;;
47545;SDS011;50104;52.002;4.688;2023-06-04T08:42:35;4.18;;;1.60;;
47545;SDS011;50104;52.002;4.688;2023-06-04T08:47:51;3.50;;;1.30;;
47545;SDS011;50104;52.002;4.688;2023-06-04T08:52:53;3.40;;;1.48;;
47545;SDS011;50104;52.002;4.688;2023-06-04T08:57:56;3.22;;;1.60;;
47545;SDS011;50104;52.002;4.688;2023-06-04T09:02:57;5.57;;;1.75;;
47545;SDS011;50104;52.002;4.688;2023-06-04T09:07:59;4.18;;;1.63;;
47545;SDS011;50104;52.002;4.688;2023-06-04T09:13:03;2.63;;;1.30;;
47545;SDS011;50104;52.002;4.688;2023-06-04T09:18:06;3.15;;;1.40;;
47545;SDS011;50104;52.002;4.688;2023-06-04T09:23:14;4.10;;;1.30;;
47545;SDS011;50104;52.002;4.688;2023-06-04T09:28:15;4.25;;;1.50;;
47545;SDS011;50104;52.002;4.688;2023-06-04T09:33:16;4.65;;;1.30;;
47545;SDS011;50104;52.002;4.688;2023-06-04T09:38:17;4.18;;;1.55;;
47545;SDS011;50104;52.002;4.688;2023-06-04T09:43:21;2.10;;;1.17;;
47545;SDS011;50104;52.002;4.688;2023-06-04T09:48:23;2.55;;;1.55;;
47545;SDS011;50104;52.002;4.688;2023-06-04T09:53:24;4.70;;;1.40;;
47545;SDS011;50104;52.002;4.688;2023-06-04T09:58:28;6.95;;;1.30;;
47545;SDS011;50104;52.002;4.688;2023-06-04T10:03:31;4.38;;;1.73;;
47545;SDS011;50104;52.002;4.688;2023-06-04T10:08:34;3.78;;;1.33;;
47545;SDS011;50104;52.002;4.688;2023-06-04T10:13:41;1.75;;;1.20;;
47545;SDS011;50104;52.002;4.688;2023-06-04T10:18:55;3.17;;;1.20;;
47545;SDS011;50104;52.002;4.688;2023-06-04T10:23:57;2.67;;;1.10;;
47545;SDS011;50104;52.002;4.688;2023-06-04T10:28:58;1.88;;;1.17;;
47545;SDS011;50104;52.002;4.688;2023-06-04T10:34:01;3.08;;;1.30;;
47545;SDS011;50104;52.002;4.688;2023-06-04T10:39:03;4.90;;;1.25;;
47545;SDS011;50104;52.002;4.688;2023-06-04T10:44:04;4.32;;;1.20;;
47545;SDS011;50104;52.002;4.688;2023-06-04T10:49:08;3.25;;;1.45;;
47545;SDS011;50104;52.002;4.688;2023-06-04T10:54:21;3.25;;;1.50;;
47545;SDS011;50104;52.002;4.688;2023-06-04T10:59:26;1.52;;;1.10;;
47545;SDS011;50104;52.002;4.688;2023-06-04T11:04:27;2.80;;;1.10;;
47545;SDS011;50104;52.002;4.688;2023-06-04T11:09:28;2.55;;;1.05;;
47545;SDS011;50104;52.002;4.688;2023-06-04T11:14:29;2.00;;;0.90;;
47545;SDS011;50104;52.002;4.688;2023-06-04T11:19:36;2.53;;;1.23;;
47545;SDS011;50104;52.002;4.688;2023-06-04T11:24:38;2.65;;;1.15;;
47545;SDS011;50104;52.002;4.688;2023-06-04T11:29:39;2.15;;;1.20;;
47545;SDS011;50104;52.002;4.688;2023-06-04T11:34:40;2.30;;;0.88;;
47545;SDS011;50104;52.002;4.688;2023-06-04T11:39:41;2.50;;;1.13;;
47545;SDS011;50104;52.002;4.688;2023-06-04T11:44:44;1.70;;;0.90;;
47545;SDS011;50104;52.002;4.688;2023-06-04T11:49:53;3.80;;;0.90;;
47545;SDS011;50104;52.002;4.688;2023-06-04T11:54:56;3.13;;;1.00;;
47545;SDS011;50104;52.002;4.688;2023-06-04T11:59:57;1.48;;;1.08;;
47545;SDS011;50104;52.002;4.688;2023-06-04T12:04:58;4.03;;;1.23;;
47545;SDS011;50104;52.002;4.688;2023-06-04T12:10:05;2.22;;;0.90;;
47545;SDS011;50104;52.002;4.688;2023-06-04T12:15:08;3.17;;;1.42;;
47545;SDS011;50104;52.002;4.688;2023-06-04T12:20:10;2.55;;;1.17;;
47545;SDS011;50104;52.002;4.688;2023-06-04T12:25:11;3.13;;;0.95;;
47545;SDS011;50104;52.002;4.688;2023-06-04T12:30:12;1.85;;;0.82;;
47545;SDS011;50104;52.002;4.688;2023-06-04T12:35:13;2.60;;;1.33;;
47545;SDS011;50104;52.002;4.688;2023-06-04T12:40:16;2.80;;;1.10;;
47545;SDS011;50104;52.002;4.688;2023-06-04T12:45:16;1.48;;;0.90;;
47545;SDS011;50104;52.002;4.688;2023-06-04T12:50:17;2.50;;;1.02;;
47545;SDS011;50104;52.002;4.688;2023-06-04T12:55:18;2.78;;;1.17;;
47545;SDS011;50104;52.002;4.688;2023-06-04T13:00:19;3.30;;;0.90;;
47545;SDS011;50104;52.002;4.688;2023-06-04T13:05:20;2.60;;;1.08;;
47545;SDS011;50104;52.002;4.688;2023-06-04T13:10:20;4.03;;;1.00;;
47545;SDS011;50104;52.002;4.688;2023-06-04T13:15:21;1.25;;;1.00;;
47545;SDS011;50104;52.002;4.688;2023-06-04T13:20:22;4.10;;;1.23;;
47545;SDS011;50104;52.002;4.688;2023-06-04T13:25:23;5.10;;;1.00;;
47545;SDS011;50104;52.002;4.688;2023-06-04T13:30:24;2.00;;;1.10;;
47545;SDS011;50104;52.002;4.688;2023-06-04T13:35:25;3.03;;;1.08;;
47545;SDS011;50104;52.002;4.688;2023-06-04T13:40:25;2.17;;;0.95;;
47545;SDS011;50104;52.002;4.688;2023-06-04T13:45:26;1.65;;;0.88;;
47545;SDS011;50104;52.002;4.688;2023-06-04T13:50:28;4.50;;;1.05;;
47545;SDS011;50104;52.002;4.688;2023-06-04T13:55:29;3.50;;;1.55;;
47545;SDS011;50104;52.002;4.688;2023-06-04T14:00:30;3.38;;;0.93;;
47545;SDS011;50104;52.002;4.688;2023-06-04T14:05:31;2.95;;;1.00;;
47545;SDS011;50104;52.002;4.688;2023-06-04T14:10:32;3.75;;;1.10;;
47545;SDS011;50104;52.002;4.688;2023-06-04T14:15:33;2.78;;;0.95;;
47545;SDS011;50104;52.002;4.688;2023-06-04T14:20:33;2.90;;;0.90;;
47545;SDS011;50104;52.002;4.688;2023-06-04T14:25:34;2.28;;;0.75;;
47545;SDS011;50104;52.002;4.688;2023-06-04T14:30:36;1.77;;;0.95;;
47545;SDS011;50104;52.002;4.688;2023-06-04T14:35:37;4.32;;;1.33;;
47545;SDS011;50104;52.002;4.688;2023-06-04T14:40:38;3.30;;;1.20;;
47545;SDS011;50104;52.002;4.688;2023-06-04T14:45:40;3.80;;;0.77;;
47545;SDS011;50104;52.002;4.688;2023-06-04T14:50:42;2.20;;;0.80;;
47545;SDS011;50104;52.002;4.688;2023-06-04T14:55:43;2.50;;;1.05;;
47545;SDS011;50104;52.002;4.688;2023-06-04T15:00:44;1.77;;;0.75;;
47545;SDS011;50104;52.002;4.688;2023-06-04T15:05:45;4.78;;;1.17;;
47545;SDS011;50104;52.002;4.688;2023-06-04T15:10:46;2.70;;;0.95;;
47545;SDS011;50104;52.002;4.688;2023-06-04T15:15:47;1.95;;;1.10;;
47545;SDS011;50104;52.002;4.688;2023-06-04T15:20:48;1.35;;;0.90;;
47545;SDS011;50104;52.002;4.688;2023-06-04T15:25:48;2.33;;;1.00;;
47545;SDS011;50104;52.002;4.688;2023-06-04T15:30:49;3.55;;;1.75;;
47545;SDS011;50104;52.002;4.688;2023-06-04T15:35:50;2.13;;;0.90;;
47545;SDS011;50104;52.002;4.688;2023-06-04T15:40:51;3.03;;;1.33;;
47545;SDS011;50104;52.002;4.688;2023-06-04T15:45:52;2.42;;;1.20;;
47545;SDS011;50104;52.002;4.688;2023-06-04T15:50:52;2.45;;;1.00;;
47545;SDS011;50104;52.002;4.688;2023-06-04T15:55:53;2.42;;;1.00;;
47545;SDS011;50104;52.002;4.688;2023-06-04T16:00:54;2.97;;;1.15;;
47545;SDS011;50104;52.002;4.688;2023-06-04T16:05:55;2.78;;;0.85;;
47545;SDS011;50104;52.002;4.688;2023-06-04T16:10:55;2.15;;;1.20;;
47545;SDS011;50104;52.002;4.688;2023-06-04T16:15:56;1.20;;;0.80;;
47545;SDS011;50104;52.002;4.688;2023-06-04T16:20:57;4.03;;;1.55;;
47545;SDS011;50104;52.002;4.688;2023-06-04T16:25:58;3.00;;;1.50;;
47545;SDS011;50104;52.002;4.688;2023-06-04T16:30:59;2.63;;;1.08;;
47545;SDS011;50104;52.002;4.688;2023-06-04T16:36:00;3.45;;;1.27;;
47545;SDS011;50104;52.002;4.688;2023-06-04T16:41:01;3.78;;;1.10;;
47545;SDS011;50104;52.002;4.688;2023-06-04T16:46:02;4.13;;;1.20;;
47545;SDS011;50104;52.002;4.688;2023-06-04T16:51:03;4.05;;;1.35;;
47545;SDS011;50104;52.002;4.688;2023-06-04T16:56:04;2.55;;;1.00;;
47545;SDS011;50104;52.002;4.688;2023-06-04T17:01:05;2.78;;;1.45;;
47545;SDS011;50104;52.002;4.688;2023-06-04T17:06:08;2.83;;;1.23;;
47545;SDS011;50104;52.002;4.688;2023-06-04T17:11:09;2.97;;;1.80;;
47545;SDS011;50104;52.002;4.688;2023-06-04T17:16:10;3.70;;;1.38;;
47545;SDS011;50104;52.002;4.688;2023-06-04T17:21:11;4.10;;;1.60;;
47545;SDS011;50104;52.002;4.688;2023-06-04T17:26:11;2.95;;;1.83;;
47545;SDS011;50104;52.002;4.688;2023-06-04T17:31:12;4.03;;;1.60;;
47545;SDS011;50104;52.002;4.688;2023-06-04T17:36:17;2.00;;;1.42;;
47545;SDS011;50104;52.002;4.688;2023-06-04T17:41:20;2.53;;;1.50;;
47545;SDS011;50104;52.002;4.688;2023-06-04T17:46:21;2.90;;;1.20;;
47545;SDS011;50104;52.002;4.688;2023-06-04T17:51:22;2.58;;;1.55;;
47545;SDS011;50104;52.002;4.688;2023-06-04T17:56:22;2.88;;;1.60;;
47545;SDS011;50104;52.002;4.688;2023-06-04T18:01:23;4.35;;;1.75;;
47545;SDS011;50104;52.002;4.688;2023-06-04T18:06:24;3.92;;;2.13;;
47545;SDS011;50104;52.002;4.688;2023-06-04T18:11:25;1.75;;;1.23;;
47545;SDS011;50104;52.002;4.688;2023-06-04T18:16:26;4.50;;;1.40;;
47545;SDS011;50104;52.002;4.688;2023-06-04T18:21:27;3.30;;;1.60;;
47545;SDS011;50104;52.002;4.688;2023-06-04T18:26:28;5.43;;;1.85;;
47545;SDS011;50104;52.002;4.688;2023-06-04T18:31:29;3.90;;;1.33;;
47545;SDS011;50104;52.002;4.688;2023-06-04T18:36:30;1.88;;;1.40;;
47545;SDS011;50104;52.002;4.688;2023-06-04T18:41:31;3.35;;;1.50;;
47545;SDS011;50104;52.002;4.688;2023-06-04T18:51:58;3.70;;;1.40;;
47545;SDS011;50104;52.002;4.688;2023-06-04T18:56:58;3.75;;;1.17;;
47545;SDS011;50104;52.002;4.688;2023-06-04T19:02:00;3.72;;;1.20;;
47545;SDS011;50104;52.002;4.688;2023-06-04T19:07:01;3.65;;;1.65;;
47545;SDS011;50104;52.002;4.688;2023-06-04T19:12:03;4.38;;;1.65;;
47545;SDS011;50104;52.002;4.688;2023-06-04T19:17:03;3.53;;;1.50;;
47545;SDS011;50104;52.002;4.688;2023-06-04T19:22:04;4.15;;;1.60;;
47545;SDS011;50104;52.002;4.688;2023-06-04T19:27:05;4.55;;;1.80;;
47545;SDS011;50104;52.002;4.688;2023-06-04T19:32:06;2.90;;;1.50;;
47545;SDS011;50104;52.002;4.688;2023-06-04T19:37:07;2.50;;;1.60;;
47545;SDS011;50104;52.002;4.688;2023-06-04T19:42:08;4.03;;;1.33;;
47545;SDS011;50104;52.002;4.688;2023-06-04T19:47:09;2.72;;;1.58;;
47545;SDS011;50104;52.002;4.688;2023-06-04T19:52:10;3.40;;;1.60;;
47545;SDS011;50104;52.002;4.688;2023-06-04T19:57:10;4.50;;;1.70;;
47545;SDS011;50104;52.002;4.688;2023-06-04T20:02:12;3.97;;;1.42;;
47545;SDS011;50104;52.002;4.688;2023-06-04T20:07:13;4.30;;;1.92;;
47545;SDS011;50104;52.002;4.688;2023-06-04T20:12:14;4.13;;;1.90;;
47545;SDS011;50104;52.002;4.688;2023-06-04T20:17:16;2.47;;;1.60;;
47545;SDS011;50104;52.002;4.688;2023-06-04T20:22:17;2.45;;;1.73;;
47545;SDS011;50104;52.002;4.688;2023-06-04T20:27:18;3.50;;;1.90;;
47545;SDS011;50104;52.002;4.688;2023-06-04T20:32:19;2.90;;;2.08;;
47545;SDS011;50104;52.002;4.688;2023-06-04T20:37:20;2.65;;;1.85;;
47545;SDS011;50104;52.002;4.688;2023-06-04T20:42:22;3.25;;;1.95;;
47545;SDS011;50104;52.002;4.688;2023-06-04T20:47:23;3.03;;;1.85;;
47545;SDS011;50104;52.002;4.688;2023-06-04T20:52:23;4.25;;;1.90;;
47545;SDS011;50104;52.002;4.688;2023-06-04T20:57:24;7.22;;;1.92;;
47545;SDS011;50104;52.002;4.688;2023-06-04T21:02:25;4.80;;;2.83;;
47545;SDS011;50104;52.002;4.688;2023-06-04T21:07:26;3.08;;;1.73;;
47545;SDS011;50104;52.002;4.688;2023-06-04T21:12:26;4.68;;;2.40;;
47545;SDS011;50104;52.002;4.688;2023-06-04T21:17:27;4.28;;;2.00;;
47545;SDS011;50104;52.002;4.688;2023-06-04T21:22:28;4.15;;;2.40;;
47545;SDS011;50104;52.002;4.688;2023-06-04T21:27:29;5.75;;;2.28;;
47545;SDS011;50104;52.002;4.688;2023-06-04T21:37:55;5.93;;;2.15;;
47545;SDS011;50104;52.002;4.688;2023-06-04T21:42:56;3.40;;;2.08;;
47545;SDS011;50104;52.002;4.688;2023-06-04T21:47:57;3.58;;;1.95;;
47545;SDS011;50104;52.002;4.688;2023-06-04T21:52:59;5.93;;;2.45;;
47545;SDS011;50104;52.002;4.688;2023-06-04T21:57:59;4.13;;;2.63;;
47545;SDS011;50104;52.002;4.688;2023-06-04T22:03:00;6.80;;;2.20;;
47545;SDS011;50104;52.002;4.688;2023-06-04T22:08:01;5.15;;;2.10;;
47545;SDS011;50104;52.002;4.688;2023-06-04T22:13:02;5.18;;;3.20;;
47545;SDS011;50104;52.002;4.688;2023-06-04T22:18:05;4.63;;;2.50;;
47545;SDS011;50104;52.002;4.688;2023-06-04T22:23:06;3.13;;;2.83;;
47545;SDS011;50104;52.002;4.688;2023-06-04T22:28:07;4.65;;;2.22;;
47545;SDS011;50104;52.002;4.688;2023-06-04T22:33:08;4.53;;;2.60;;
47545;SDS011;50104;52.002;4.688;2023-06-04T22:38:09;5.55;;;2.60;;
47545;SDS011;50104;52.002;4.688;2023-06-04T22:43:10;3.85;;;2.50;;
47545;SDS011;50104;52.002;4.688;2023-06-04T22:48:10;4.75;;;2.60;;
47545;SDS011;50104;52.002;4.688;2023-06-04T22:53:12;3.92;;;2.58;;
47545;SDS011;50104;52.002;4.688;2023-06-04T22:58:13;3.20;;;2.28;;
47545;SDS011;50104;52.002;4.688;2023-06-04T23:03:13;4.57;;;2.58;;
47545;SDS011;50104;52.002;4.688;2023-06-04T23:08:16;5.05;;;2.80;;
47545;SDS011;50104;52.002;4.688;2023-06-04T23:13:16;3.15;;;2.72;;
47545;SDS011;50104;52.002;4.688;2023-06-04T23:18:17;5.50;;;2.70;;
47545;SDS011;50104;52.002;4.688;2023-06-04T23:23:18;3.90;;;3.00;;
47545;SDS011;50104;52.002;4.688;2023-06-04T23:28:19;3.53;;;2.65;;
47545;SDS011;50104;52.002;4.688;2023-06-04T23:33:20;4.40;;;2.75;;
47545;SDS011;50104;52.002;4.688;2023-06-04T23:38:22;6.60;;;3.00;;
47545;SDS011;50104;52.002;4.688;2023-06-04T23:43:23;4.40;;;2.97;;
47545;SDS011;50104;52.002;4.688;2023-06-04T23:48:24;5.00;;;2.80;;
47545;SDS011;50104;52.002;4.688;2023-06-04T23:53:24;4.13;;;3.22;;
47545;SDS011;50104;52.002;4.688;2023-06-04T23:58:25;4.22;;;3.28;;
